ADDS METAR Data INFO
IDs: Format: Raw Decoded Include TAF

Data at: 0258 UTC 17 Jan 2018

KW29 170235Z AUTO 00000KT 5SM BR CLR 00/M01 A3035 RMK AO2
KW29 170215Z AUTO 00000KT 5SM BR CLR 00/M02 A3036 RMK AO2
KW29 170155Z AUTO 00000KT 7SM BR SCT025 00/M02 A3036 RMK AO2
KW29 170135Z AUTO 00000KT 7SM BR SCT025 00/M02 A3036 RMK AO2
KW29 170115Z AUTO 00000KT 7SM BR SCT024 00/M02 A3036 RMK AO2
KW29 170055Z AUTO 00000KT 7SM BR SCT024 00/M02 A3037 RMK AO2
KW29 170035Z AUTO 00000KT 7SM BR CLR 00/M02 A3036 RMK AO2
KW29 170015Z AUTO 09005KT 5SM BR CLR 00/M02 A3037 RMK AO2
KW29 162355Z AUTO 10003KT 5SM BR CLR 00/M02 A3037 RMK AO2
KW29 162335Z AUTO 05003KT 7SM BR CLR 00/M02 A3037 RMK AO2
KW29 162315Z AUTO 00000KT 7SM BR CLR 00/M02 A3037 RMK AO2
KW29 162255Z AUTO 01003KT 5SM BR CLR 00/M02 A3037 RMK AO2
KW29 162235Z AUTO 01003KT 5SM BR CLR M01/M02 A3037 RMK AO2
KW29 162215Z AUTO 00000KT 5SM BR CLR 00/M02 A3037 RMK AO2
KW29 162155Z AUTO 36003KT 5SM BR CLR 00/M02 A3037 RMK AO2
KW29 162135Z AUTO 36003KT 7SM HZ CLR 02/M01 A3037 RMK AO2
KW29 162115Z AUTO 00000KT 7SM HZ CLR 02/M01 A3036 RMK AO2
KW29 162055Z AUTO 00000KT 7SM HZ CLR 02/M01 A3037 RMK AO2
KW29 162035Z AUTO 00000KT 7SM BR CLR 01/M01 A3037 RMK AO2
KW29 162015Z AUTO 00000KT 7SM BR CLR 01/M01 A3038 RMK AO2
KW29 161955Z AUTO 00000KT 7SM BR CLR 01/M01 A3038 RMK AO2
KW29 161935Z AUTO 26003KT 5SM BR CLR 00/M01 A3039 RMK AO2
KW29 161915Z AUTO 28004KT 4SM BR SCT003 00/M01 A3040 RMK AO2
KW29 161855Z AUTO 25004KT 4SM BR SCT003 00/M02 A3040 RMK AO2
KW29 161835Z AUTO 27006KT 5SM BR CLR 00/M02 A3041 RMK AO2
KW29 161815Z AUTO 26005KT 5SM BR CLR 01/M02 A3042 RMK AO2
KW29 161755Z AUTO 27005KT 5SM BR SCT005 SCT010 01/M02 A3042 RMK AO2
KW29 161735Z AUTO 25004KT 4SM BR SCT005 BKN010 00/M02 A3043 RMK AO2
KW29 161710Z AUTO 27004KT 4SM BR SCT005 BKN010 01/M02 A3045 RMK AO2
KW29 161655Z AUTO 28004KT 4SM HZ BKN010 00/M02 A3046 RMK AO2
KW29 161635Z AUTO 30004KT 5SM HZ BKN010 01/M03 A3046 RMK AO2
KW29 161615Z AUTO 31005KT 5SM HZ SCT010 00/M03 A3047 RMK AO2
KW29 161555Z AUTO 30004KT 4SM HZ SCT010 00/M03 A3048 RMK AO2
KW29 161535Z AUTO 29004KT 5SM HZ BKN010 00/M03 A3049 RMK AO2
KW29 161515Z AUTO 31004KT 5SM HZ OVC010 00/M03 A3050 RMK AO2
KW29 161455Z AUTO 30003KT 5SM HZ OVC010 00/M03 A3050 RMK AO2
KW29 161435Z AUTO 00000KT 5SM HZ OVC010 00/M03 A3050 RMK AO2
KW29 161415Z AUTO 00000KT 5SM HZ OVC010 00/M04 A3050 RMK AO2
KW29 161355Z AUTO 5SM HZ OVC012 00/M04 A3049 RMK AO2
KW29 161335Z AUTO 5SM HZ OVC012 M01/M04 A3049 RMK AO2
KW29 161315Z AUTO 00000KT 5SM HZ OVC012 M01/M04 A3050 RMK AO2
KW29 161255Z AUTO 00000KT 4SM HZ OVC010 M01/M04 A3049 RMK AO2
KW29 161235Z AUTO 00000KT 4SM HZ OVC010 M01/M04 A3049 RMK AO2
KW29 161215Z AUTO 00000KT 4SM HZ OVC008 M01/M04 A3049 RMK AO2
KW29 161155Z AUTO 00000KT 5SM BR OVC008 M01/M03 A3049 RMK AO2
KW29 161135Z AUTO 00000KT 5SM BR OVC008 M01/M03 A3050 RMK AO2
KW29 161115Z AUTO 00000KT 5SM BR OVC008 M01/M03 A3049 RMK AO2
KW29 161055Z AUTO 00000KT 5SM BR OVC008 M01/M03 A3048 RMK AO2
KW29 161035Z AUTO 00000KT 5SM BR OVC008 M02/M03 A3048 RMK AO2
KW29 161015Z AUTO 09004KT 5SM BR OVC008 M02/M03 A3047 RMK AO2
KW29 160955Z AUTO 14005KT 4SM BR OVC008 M02/M03 A3047 RMK AO2
KW29 160935Z AUTO 00000KT 4SM BR OVC008 M02/M03 A3046 RMK AO2
KW29 160915Z AUTO 34003KT 5SM BR OVC008 M02/M03 A3047 RMK AO2
KW29 160855Z AUTO 32003KT 5SM BR OVC008 M02/M04 A3047 RMK AO2
KW29 160835Z AUTO 00000KT 5SM BR OVC008 M02/M04 A3047 RMK AO2
KW29 160815Z AUTO 01003KT 5SM HZ OVC008 M02/M04 A3047 RMK AO2
KW29 160755Z AUTO 7SM HZ OVC008 M02/M04 A3048 RMK AO2
KW29 160735Z AUTO 7SM HZ OVC008 M02/M05 A3047 RMK AO2
KW29 160715Z AUTO 7SM HZ OVC010 M02/M05 A3047 RMK AO2
KW29 160650Z AUTO 34003KT 7SM HZ OVC010 M02/M05 A3047 RMK AO2
KW29 160635Z AUTO 7SM HZ OVC010 M02/M05 A3047 RMK AO2
KW29 160615Z AUTO 7SM HZ OVC012 M02/M05 A3048 RMK AO2
KW29 160555Z AUTO 7SM HZ OVC012 M02/M05 A3047 RMK AO2
KW29 160535Z AUTO 33004KT 7SM OVC012 M02/M05 A3047 RMK AO2
KW29 160515Z AUTO 02004KT 7SM OVC012 M02/M05 A3047 RMK AO2
KW29 160455Z AUTO 34004KT 7SM OVC012 M02/M05 A3049 RMK AO2
KW29 160435Z AUTO 7SM OVC010 M02/M05 A3049 RMK AO2
KW29 160415Z AUTO 33005KT 7SM OVC010 M02/M05 A3049 RMK AO2
KW29 160355Z AUTO 33005KT 7SM OVC010 M02/M06 A3049 RMK AO2
KW29 160335Z AUTO 7SM OVC012 M02/M06 A3048 RMK AO2
KW29 160315Z AUTO 35005KT 7SM OVC012 M02/M06 A3050 RMK AO2
KW29 160255Z AUTO 33005KT 7SM OVC014 M02/M06 A3050 RMK AO2
KW29 160235Z AUTO 34004G118KT 7SM OVC014 M02/M05 A3050 RMK AO2
KW29 160215Z AUTO 7SM OVC016 M03/M05 A3050 RMK AO2
KW29 160155Z AUTO 00000KT 7SM OVC016 M03/M05 A3050 RMK AO2
KW29 160135Z AUTO 7SM OVC018 M03/M06 A3050 RMK AO2
KW29 160115Z AUTO 7SM OVC018 M03/M06 A3052 RMK AO2
KW29 160055Z AUTO 00000KT 7SM OVC018 M03/M06 A3052 RMK AO2
KW29 160035Z AUTO 7SM BKN018 M04/M07 A3050 RMK AO2
KW29 160015Z AUTO 01003G105KT 7SM CLR M04/M07 A3050 RMK AO2
KW29 152355Z AUTO 06039G105KT 020V150 7SM CLR M04/M07 A3050 RMK AO2
KW29 152335Z AUTO 00000KT 7SM SCT018 M03/M06 A3050 RMK AO2
KW29 152315Z AUTO 7SM SCT018 M04/M07 A3052 RMK AO2
KW29 152255Z AUTO 00000KT 7SM CLR M03/M07 A3051 RMK AO2
KW29 152235Z AUTO 00000KT 7SM SCT046 M03/M07 A3050 RMK AO2
KW29 152215Z AUTO 7SM HZ BKN046 M03/M07 A3050 RMK AO2
KW29 152155Z AUTO 7SM HZ OVC046 M03/M07 A3051 RMK AO2
KW29 152135Z AUTO 01005KT 7SM HZ OVC046 M03/M07 A3050 RMK AO2
KW29 152115Z AUTO 7SM HZ OVC046 M03/M07 A3049 RMK AO2
KW29 152055Z AUTO 02005KT 7SM HZ SCT038 OVC046 M02/M07 A3050 RMK AO2
KW29 152035Z AUTO 01006KT 7SM HZ SCT019 BKN035 OVC041 M03/M07 A3049 RMK AO2
KW29 152015Z AUTO 36007KT 7SM HZ BKN017 OVC035 M03/M07 A3050 RMK AO2
KW29 151955Z AUTO 35007KT 7SM HZ OVC017 M03/M07 A3050 RMK AO2
KW29 151935Z AUTO 01007KT 7SM HZ OVC017 M03/M07 A3049 RMK AO2
KW29 151915Z AUTO 01006KT 7SM HZ OVC017 M03/M07 A3050 RMK AO2
KW29 151855Z AUTO 35007KT 7SM HZ OVC017 M03/M07 A3051 RMK AO2
KW29 151835Z AUTO 34007KT 5SM -SN OVC017 M03/M07 A3052 RMK AO2
KW29 151815Z AUTO 35007G59KT 7SM HZ OVC017 M04/M07 A3052 RMK AO2
KW29 151755Z AUTO 35006G59KT 7SM HZ OVC017 M04/M07 A3053 RMK AO2
KW29 151735Z AUTO 34007KT 7SM BKN019 BKN026 OVC032 M04/M07 A3054 RMK AO2
KW29 151715Z AUTO 35006KT 7SM HZ SCT019 BKN029 OVC045 M04/M08 A3055 RMK AO2
KW29 151655Z AUTO 35006KT 7SM BKN030 BKN036 OVC045 M04/M08 A3056 RMK AO2
KW29 151635Z AUTO 01006KT 7SM SCT026 BKN033 OVC047 M04/M08 A3058 RMK AO2
KW29 151615Z AUTO 03006G83KT 7SM HZ SCT018 BKN030 OVC039 M04/M09 A3059 RMK AO2
KW29 151555Z AUTO 7SM SCT029 BKN036 M04/M09 A3059 RMK AO2
KW29 151535Z AUTO 02007KT 7SM SCT027 BKN036 M04/M09 A3060 RMK AO2
KW29 151515Z AUTO 7SM SCT029 OVC034 M04/M09 A3061 RMK AO2